KPAM/PAM METAR and TAF weather

Enter ICAO airport designator
Station Type Date Time Source
KPAM METAR 2019/04/22 17:57 UTC NOAA

KPAM 221757Z AUTO 22009KT 10SM CLR 25/07 A3017 RMK AO2 SLP220 T02490071 10255 20115 57009 $


Station Type Date Time Source
KPAM Decoded METAR 2019/04/22 17:57 UTC NOAA

Tyndall Air Force Base, FL, United States (KPAM) 30-04N 085-35W 13M
Apr 22, 2019 - 01:57 PM EDT / 2019.04.22 1757 UTC
Wind: from the SW (220 degrees) at 10 MPH (9 KT):0
Visibility: 10 mile(s):0
Sky conditions: clear
Temperature: 76.8 F (24.9 C)
Dew Point: 44.8 F (7.1 C)
Relative Humidity: 32%
Pressure (altimeter): 30.17 in. Hg (1021 hPa)
Pressure tendency: 0.03 inches (0.9 hPa) lower than three hours ago
ob: KPAM 221757Z AUTO 22009KT 10SM CLR 25/07 A3017 RMK AO2 SLP220 T02490071 10255 20115 57009
cycle: 18

Station Type Date Time Source
KPAM TAF 2019/04/22 18:33 UTC NOAA

TAF KPAM 221800Z 2218/2324 23009KT 9999 FEW250 QNH3010INS
BECMG 2223/2224 VRB06KT 9999 SKC QNH3012INS
BECMG 2315/2316 21009KT 9999 FEW250 QNH3009INS TX26/2218Z TN14/2311Z

Example: see airport list